Home > Products > Valid Products > TAF

000
FTUS42 KMFL 161138 CCA
TAFAPF
TAF COR
KAPF 161138Z 1612/1712 03009KT P6SM BKN020
     FM161800 06009KT P6SM VCSH BKN035=



000
FTUS42 KMFL 161138 CCA
TAFPBI
TAF COR
KPBI 161138Z 1612/1712 34008KT P6SM BKN015
     FM161600 03010KT P6SM SCT025 BKN050
     FM170000 08008KT P6SM BKN035=



000
FTUS42 KMFL 161138 CCA
TAFFLL
TAF COR
KFLL 161138Z 1612/1712 33006KT P6SM BKN020
     FM161600 03012KT P6SM SCT025 BKN050
     FM170000 08006KT P6SM VCSH BKN035=



000
FTUS42 KMFL 161138 CCA
TAFMIA
TAF COR
KMIA 161138Z 1612/1712 33005KT P6SM SCT035 BKN250
     FM161300 35008KT P6SM BKN025
     FM161700 04008KT P6SM SCT025 BKN050
     FM170000 08003KT P6SM VCSH BKN035=



000
FTUS42 KMFL 161120
TAFPBI
TAF
KPBI 161120Z 1612/1712 32007KT P6SM FEW018 SCT250
     FM161400 03010KT P6SM SCT025 BKN050=



000
FTUS42 KMFL 161120
TAFFLL
TAF
KFLL 161120Z 1612/1712 32007KT P6SM FEW008 SCT020
     FM161500 03012KT P6SM VCSH SCT025 BKN050=



000
FTUS42 KMFL 161120
TAFMIA
TAF
KMIA 161120Z 1612/1712 28005KT 6SM BR FEW014 SCT020 SCT250
     FM161500 04008KT P6SM VCSH SCT025 BKN050=



000
FTUS42 KMFL 161120
TAFAPF
TAF
KAPF 161120Z 1612/1712 02008KT P6SM VCSH OVC018=



000
FTUS42 KMFL 160628 AAA
TAFPBI
TAF AMD
KPBI 160628Z 1606/1706 25004KT P6SM FEW035 SCT250
      TEMPO 1606/1609 BKN013
     FM160900 33006KT P6SM SCT013 BKN250
     FM161400 03010KT P6SM SCT025 BKN050=



000
FTUS42 KMFL 160523
TAFPBI
TAF
KPBI 160523Z 1606/1706 22004KT P6SM FEW035 SCT250
     FM160700 33006KT P6SM SCT020 BKN250
     FM161400 03010KT P6SM SCT025 BKN050=



000
FTUS42 KMFL 160523
TAFFLL
TAF
KFLL 160523Z 1606/1706 20006KT P6SM SCT300
     FM160800 32006KT P6SM SCT020 BKN250
     FM161500 03012KT P6SM VCSH SCT025 BKN050=



000
FTUS42 KMFL 160523
TAFMIA
TAF
KMIA 160523Z 1606/1706 24007KT P6SM FEW020 BKN250
     FM160800 32006KT P6SM SCT035 BKN250
     FM161500 04008KT P6SM VCSH SCT025 BKN050=



000
FTUS42 KMFL 160523
TAFAPF
TAF
KAPF 160523Z 1606/1706 34010KT P6SM BKN012 BKN250
     FM161200 03010KT P6SM VCSH SCT020 BKN250=



000
FTUS42 KMFL 160454 AAD
TAFAPF
TAF AMD
KAPF 160454Z 1605/1624 32010KT P6SM BKN012 BKN035
     FM161200 03010KT P6SM VCSH BKN035=



000
FTUS42 KMFL 160249 AAC
TAFAPF
TAF AMD
KAPF 160249Z 1603/1624 31010KT P6SM SCT012 BKN035
     FM161200 03010KT P6SM VCSH BKN035=



000
FTUS42 KMFL 160248 AAD
TAFFLL
TAF AMD
KFLL 160248Z 1603/1624 20006KT P6SM SCT300
     FM160600 31006KT P6SM SCT035 BKN150
     FM161100 35008KT P6SM BKN025
     FM161500 03012KT P6SM VCSH SCT025 BKN035=



000
FTUS42 KMFL 160248 AAB
TAFMIA
TAF AMD
KMIA 160248Z 1603/1624 24007KT P6SM FEW030 BKN250
     FM160500 28006KT P6SM SCT035 BKN150
     FM161100 35006KT P6SM BKN025
     FM161500 04008KT P6SM VCSH SCT025 BKN035=



000
FTUS42 KMFL 160246 AAB
TAFPBI
TAF AMD
KPBI 160246Z 1603/1624 22004KT P6SM FEW035 SCT250
     FM160500 29006KT P6SM SCT035 BKN150
     FM161100 34010KT P6SM BKN025
     FM161400 03010KT P6SM SCT025 BKN035=



000
FTUS42 KMFL 160103 AAB
TAFAPF
TAF AMD
KAPF 160103Z 1601/1624 24008KT P6SM SCT010 SCT015
     FM160200 30010KT P6SM SCT012 BKN035
     FM161200 03010KT P6SM VCSH BKN035=



000
FTUS42 KMFL 160004 RRA
TAFFLL
TAF
KFLL 160004Z 1600/1624 16008KT P6SM SCT050 BKN150
     FM160100 24006KT P6SM SCT050
     FM160600 31006KT P6SM SCT035 BKN150
     FM161100 35008KT P6SM BKN025
     FM161500 03012KT P6SM VCSH SCT025 BKN035=



000
FTUS42 KMFL 160004 RRA
TAFAPF
TAF
KAPF 160004Z 1600/1624 24008KT P6SM SCT010 BKN015
     FM160200 30010KT P6SM SCT012 BKN022
     FM161200 03010KT P6SM VCSH BKN035=



000
FTUS42 KMFL 160004 RRA
TAFMIA
TAF
KMIA 160004Z 1600/1624 25008KT P6SM SCT080 SCT250
     FM160500 28006KT P6SM SCT035 BKN150
     FM161100 35006KT P6SM BKN025
     FM161500 04008KT P6SM VCSH SCT025 BKN035=



000
FTUS42 KMFL 160004 RRA
TAFPBI
TAF
KPBI 160004Z 1600/1624 16010KT P6SM SCT050 BKN070
     FM160100 23008KT P6SM SCT050
     FM160500 29006KT P6SM SCT035 BKN150
     FM161100 34010KT P6SM BKN025
     FM161400 03010KT P6SM SCT025 BKN035=



000
FTUS42 KMFL 152127 AAC
TAFFLL
TAF AMD
KFLL 152127Z 1521/1618 17015KT P6SM VCSH SCT035
      TEMPO 1521/1522 23015G25KT 1/4SM -TSRA FG BKN015CB
     FM160000 26007KT P6SM SCT025 BKN250
     FM161000 35008KT P6SM BKN035=



000
FTUS42 KMFL 152049 AAB
TAFFLL
TAF AMD
KFLL 152049Z 1521/1618 17015KT P6SM VCSH SCT035
      TEMPO 1521/1522 23020G40KT -TSRA BKN015CB
     FM160000 26007KT P6SM SCT025 BKN250
     FM161000 35008KT P6SM BKN035=



000
FTUS42 KMFL 152030 AAA
TAFPBI
TAF AMD
KPBI 152030Z 1520/1618 17015KT P6SM VCSH FEW015 BKN040
      TEMPO 1520/1522 -RA BKN025
     FM160000 26007KT P6SM SCT025 BKN250
     FM160900 35008KT P6SM BKN035=



000
FTUS42 KMFL 152030 AAA
TAFMIA
TAF AMD
KMIA 152030Z 1520/1618 17015KT P6SM VCSH BKN050
      TEMPO 1521/1522 16015G25KT -SHRA BKN025
     FM160000 26007KT P6SM SCT025 BKN250
     FM161000 35008KT P6SM BKN035=



000
FTUS42 KMFL 152030 AAA
TAFAPF
TAF AMD
KAPF 152030Z 1520/1618 23015KT P6SM VCSH BKN025
      TEMPO 1520/1523 BKN015
     FM160000 30008KT P6SM SCT025 BKN250
     FM161200 01009KT P6SM BKN035=



000
FTUS42 KMFL 152030 AAA
TAFFLL
TAF AMD
KFLL 152030Z 1520/1618 17015KT P6SM VCSH SCT035
      TEMPO 1521/1523 -RA BKN025
     FM160000 26007KT P6SM SCT025 BKN250
     FM161000 35008KT P6SM BKN035=



000
FTUS42 KMFL 151723
TAFPBI
TAF
KPBI 151723Z 1518/1618 17015G22KT P6SM FEW030 BKN040
     FM151900 19016G25KT P6SM VCSH BKN035
     FM160000 26007KT P6SM SCT025 BKN250
     FM160900 35008KT P6SM BKN035=



000
FTUS42 KMFL 151723
TAFMIA
TAF
KMIA 151723Z 1518/1618 16012KT P6SM FEW030 SCT080
     FM152000 20012G20KT P6SM VCSH BKN035
     FM160000 26007KT P6SM SCT025 BKN250
     FM161000 35008KT P6SM BKN035=



000
FTUS42 KMFL 151723
TAFFLL
TAF
KFLL 151723Z 1518/1618 17013G21KT P6SM SCT035 BKN070
     FM151900 19013G22KT P6SM VCSH BKN035
     FM160000 26007KT P6SM SCT025 BKN250
     FM161000 35008KT P6SM BKN035=



000
FTUS42 KMFL 151723
TAFAPF
TAF
KAPF 151723Z 1518/1618 21017G26KT P6SM SCT030
     FM151900 26014G24KT P6SM VCSH BKN035
     FM160000 30008KT P6SM SCT025 BKN250
     FM161200 01009KT P6SM BKN035=



000
FTUS42 KMFL 151506 AAA
TAFMIA
TAF AMD
KMIA 151506Z 1515/1612 16013KT P6SM FEW035 SCT200
     FM151900 20012G20KT P6SM VCSH BKN035
     FM160100 27007KT P6SM SCT025 BKN250=



000
FTUS42 KMFL 151506 AAB
TAFAPF
TAF AMD
KAPF 151506Z 1515/1612 17016KT P6SM BKN025
     FM151800 22017G25KT P6SM VCSH BKN035
     FM152200 26012G22KT P6SM VCSH BKN035
     FM160000 30008KT P6SM SCT025 BKN250=



000
FTUS42 KMFL 151506 AAA
TAFFLL
TAF AMD
KFLL 151506Z 1515/1612 17012KT P6SM FEW035 SCT200
     FM151800 19012G21KT P6SM VCSH BKN035
     FM160100 27007KT P6SM SCT025 BKN250=



000
FTUS42 KMFL 151506 AAA
TAFPBI
TAF AMD
KPBI 151506Z 1515/1612 17013KT P6SM FEW025 SCT035 SCT250
     FM151800 19014G22KT P6SM VCSH BKN035
     FM160100 27007KT P6SM SCT025 BKN250=



000
FTUS42 KMFL 151201 AAA
TAFAPF
TAF AMD
KAPF 151201Z 1512/1612 12005KT 6SM BR BKN003
     FM151330 17010KT P6SM FEW035 SCT250
     FM151700 22017G25KT P6SM VCSH BKN035
     FM152200 26012G22KT P6SM VCSH BKN035
     FM160000 30008KT P6SM SCT025 BKN250=



000
FTUS42 KMFL 151120
TAFFLL
TAF
KFLL 151120Z 1512/1612 16005KT P6SM FEW050
     FM151400 17012KT P6SM FEW035 SCT250
     FM151700 19012G21KT P6SM VCSH BKN035
     FM160100 27007KT P6SM SCT025 BKN250=



000
FTUS42 KMFL 151120
TAFMIA
TAF
KMIA 151120Z 1512/1612 14005KT P6SM FEW150
     FM151400 17013KT P6SM FEW035 SCT250
     FM151900 20012G20KT P6SM VCSH BKN035
     FM160100 27007KT P6SM SCT025 BKN250=



000
FTUS42 KMFL 151120
TAFAPF
TAF
KAPF 151120Z 1512/1612 12005KT P6SM SKC
     FM151400 17010KT P6SM FEW035 SCT250
     FM151700 22017G25KT P6SM VCSH BKN035
     FM152200 26012G22KT P6SM VCSH BKN035
     FM160000 30008KT P6SM SCT025 BKN250=



000
FTUS42 KMFL 151120
TAFPBI
TAF
KPBI 151120Z 1512/1612 17005KT P6SM FEW080 FEW150
     FM151400 17013KT P6SM FEW035 SCT250
     FM151700 19014G22KT P6SM VCSH BKN035
     FM160100 27007KT P6SM SCT025 BKN250=



000
FTUS42 KMFL 150902 AAA
TAFFLL
TAF AMD
KFLL 150902Z 1509/1606 15005KT P6SM SCT020
     FM151400 17012KT P6SM FEW035 SCT250
     FM151700 19012G21KT P6SM VCTS BKN035CB
     FM160100 27007KT P6SM SCT025 BKN250=



000
FTUS42 KMFL 150902 AAA
TAFPBI
TAF AMD
KPBI 150902Z 1509/1606 17003KT P6SM FEW110
     FM151400 17013KT P6SM FEW035 SCT250
     FM151700 19014G22KT P6SM VCTS BKN035CB
     FM160100 27007KT P6SM SCT025 BKN250=



000
FTUS42 KMFL 150902 AAA
TAFMIA
TAF AMD
KMIA 150902Z 1509/1606 13005KT P6SM FEW022
     FM151400 17013KT P6SM FEW035 SCT250
     FM151900 20012G20KT P6SM VCTS BKN035CB
     FM160100 27007KT P6SM SCT025 BKN250=



000
FTUS42 KMFL 150902 AAA
TAFAPF
TAF AMD
KAPF 150902Z 1509/1606 11005KT P6SM SKC
     FM151400 17010KT P6SM FEW035 SCT250
     FM151700 22017G25KT P6SM VCTS BKN035CB
     FM152200 26012G22KT P6SM VCTS BKN035CB
     FM160000 30008KT P6SM SCT025 BKN250=



000
FTUS42 KMFL 150531
TAFPBI
TAF
KPBI 150531Z 1506/1606 15007KT P6SM FEW020 SCT100
     FM151400 17013KT P6SM FEW035 SCT250
     FM151700 19014G22KT P6SM VCTS BKN035CB
     FM160100 27007KT P6SM SCT025 BKN250=



000
FTUS42 KMFL 150531
TAFAPF
TAF
KAPF 150531Z 1506/1606 10005KT P6SM SCT250
     FM151400 17010KT P6SM FEW035 SCT250
     FM151700 22017G25KT P6SM VCTS BKN035CB
     FM152200 26012G22KT P6SM VCTS BKN035CB
     FM160000 30008KT P6SM SCT025 BKN250=



000
FTUS42 KMFL 150531
TAFFLL
TAF
KFLL 150531Z 1506/1606 13005KT P6SM FEW025 SCT300
     FM151400 17012KT P6SM FEW035 SCT250
     FM151700 19012G21KT P6SM VCTS BKN035CB
     FM160100 27007KT P6SM SCT025 BKN250=



000
FTUS42 KMFL 150531
TAFMIA
TAF
KMIA 150531Z 1506/1606 13006KT P6SM FEW020 SCT250
     FM151400 17013KT P6SM FEW035 SCT250
     FM151900 20012G20KT P6SM VCTS BKN035CB
     FM160100 27007KT P6SM SCT025 BKN250=



000
FTUS42 KMFL 150237 AAA
TAFAPF
TAF AMD
KAPF 150237Z 1503/1524 09004KT P6SM SCT250
     FM151400 17010KT P6SM FEW035 SCT250
     FM151800 22015G25KT P6SM VCTS BKN035CB
     FM152200 26012G22KT P6SM VCTS BKN035CB=



000
FTUS42 KMFL 150236 AAA
TAFMIA
TAF AMD
KMIA 150236Z 1503/1524 14006KT P6SM SCT017 SCT250
     FM151400 16013KT P6SM FEW035 SCT250
     FM151800 20012G22KT P6SM VCTS BKN035CB=



000
FTUS42 KMFL 150235 AAA
TAFFLL
TAF AMD
KFLL 150235Z 1503/1524 15008KT P6SM SCT017 BKN300
     FM151400 17013KT P6SM FEW035 SCT250
     FM151800 20012G22KT P6SM VCTS BKN035CB=



000
FTUS42 KMFL 150234 AAA
TAFPBI
TAF AMD
KPBI 150234Z 1503/1524 17008KT P6SM FEW015 SCT030 BKN060
     FM151400 17013KT P6SM FEW035 SCT250
     FM151800 20012G22KT P6SM VCTS BKN035CB=



000
FTUS42 KMFL 142334
TAFFLL
TAF
KFLL 142334Z 1500/1524 15012KT P6SM FEW025 SCT250
     FM150300 15005KT P6SM FEW025 SCT250
     FM151400 17013KT P6SM FEW035 SCT250
     FM151800 20012G22KT P6SM VCTS BKN035CB=



000
FTUS42 KMFL 142334
TAFMIA
TAF
KMIA 142334Z 1500/1524 14012KT P6SM SCT025 BKN250
     FM150300 13005KT P6SM FEW025 SCT250
     FM151400 16013KT P6SM FEW035 SCT250
     FM151800 20012G22KT P6SM VCTS BKN035CB=



000
FTUS42 KMFL 142334
TAFPBI
TAF
KPBI 142334Z 1500/1524 14012KT P6SM FEW025 SCT080
     FM150300 16006KT P6SM FEW025 SCT250
     FM151400 17013KT P6SM FEW035 SCT250
     FM151800 20012G22KT P6SM VCTS BKN035CB=



000
FTUS42 KMFL 142334
TAFAPF
TAF
KAPF 142334Z 1500/1524 22010KT P6SM SCT250
     FM150300 VRB05KT P6SM SCT250
     FM151400 17010KT P6SM FEW035 SCT250
     FM151800 22015G25KT P6SM VCTS BKN035CB
     FM152200 26012G22KT P6SM VCTS BKN035CB=



000
FTUS42 KMFL 142104 AAA
TAFAPF
TAF AMD
KAPF 142104Z 1421/1518 20010KT P6SM FEW030 SCT250
     FM150100 VRB04KT P6SM SCT250
     FM151400 19012KT P6SM SCT025 BKN100 BKN250=



000
FTUS42 KMFL 142103 AAA
TAFFLL
TAF AMD
KFLL 142103Z 1421/1518 14012KT P6SM FEW025 SCT250
     FM150000 15006KT P6SM FEW040 SCT250
     FM151400 17013KT P6SM SCT050 SCT250=



000
FTUS42 KMFL 142103 AAA
TAFMIA
TAF AMD
KMIA 142103Z 1421/1518 15010KT P6SM FEW025 SCT250
     FM150000 14006KT P6SM FEW030 SCT250
     FM151400 17013KT P6SM SCT050 SCT250=



000
FTUS42 KMFL 142102 AAA
TAFPBI
TAF AMD
KPBI 142102Z 1421/1518 15012KT P6SM SCT045 BKN250
     FM150400 16006KT P6SM FEW030 SCT250
     FM151400 17013KT P6SM SCT050 SCT250=



000
FTUS42 KMFL 141720
TAFPBI
TAF
KPBI 141720Z 1418/1518 14014KT P6SM SCT028 BKN250
     FM150400 16006KT P6SM FEW030 SCT250
     FM151400 17013KT P6SM SCT050 SCT250=



000
FTUS42 KMFL 141720
TAFMIA
TAF
KMIA 141720Z 1418/1518 14011KT P6SM SCT028 BKN250
     FM150000 14006KT P6SM FEW030 SCT250
     FM151400 17013KT P6SM SCT050 SCT250=



000
FTUS42 KMFL 141720
TAFAPF
TAF
KAPF 141720Z 1418/1518 22011KT P6SM FEW030 SCT250
     FM150100 VRB04KT P6SM SCT250
     FM151400 19012KT P6SM SCT025 BKN100 BKN250=



000
FTUS42 KMFL 141720
TAFFLL
TAF
KFLL 141720Z 1418/1518 14014KT P6SM FEW028 SCT250
     FM150000 15006KT P6SM FEW040 SCT250
     FM151400 17013KT P6SM SCT050 SCT250=



000
FTUS42 KMFL 141503 AAA
TAFMIA
TAF AMD
KMIA 141503Z 1415/1512 13012KT P6SM SCT023 SCT250
     FM150300 14005KT P6SM FEW030 SCT250=



000
FTUS42 KMFL 141503 AAA
TAFFLL
TAF AMD
KFLL 141503Z 1415/1512 16013KT P6SM FEW020 SCT080 SCT250
     FM150400 15005KT P6SM FEW040 SCT250=



000
FTUS42 KMFL 141503 AAA
TAFPBI
TAF AMD
KPBI 141503Z 1415/1512 16008KT P6SM SCT020 SCT050 SCT250
     FM141700 14012KT P6SM SCT030
     FM150400 16006KT P6SM FEW030 SCT250=



000
FTUS42 KMFL 141503 AAB
TAFAPF
TAF AMD
KAPF 141503Z 1415/1512 16008KT P6SM FEW020
     FM141700 22010KT P6SM FEW040
     FM150100 VRB04KT P6SM SCT250=



000
FTUS42 KMFL 141330 AAA
TAFAPF
TAF AMD
KAPF 141330Z 1414/1512 11006KT 3SM BR OVC003
     FM141400 15006KT P6SM SCT010 SCT020
     FM141700 22010KT P6SM FEW040
     FM150100 VRB04KT P6SM SCT250=



000
FTUS42 KMFL 141140
TAFMIA
TAF
KMIA 141140Z 1412/1512 14003KT P6SM SCT015 BKN250
     FM141400 13010KT P6SM SCT040 SCT250
     FM150300 14005KT P6SM FEW030 SCT250=



000
FTUS42 KMFL 141140
TAFFLL
TAF
KFLL 141140Z 1412/1512 13008KT P6SM VCSH SCT015 SCT025 BKN060
      TEMPO 1412/1413 BKN025
     FM141400 14012KT P6SM SCT040 SCT250
     FM150400 15005KT P6SM FEW040 SCT250=



000
FTUS42 KMFL 141140
TAFPBI
TAF
KPBI 141140Z 1412/1512 14005KT P6SM VCSH BKN015 BKN030 BKN070
      TEMPO 1412/1413 SCT015
     FM141300 13009KT P6SM SCT020 SCT040
     FM141700 14012KT P6SM SCT030
     FM150400 16006KT P6SM FEW030 SCT250=



000
FTUS42 KMFL 141140
TAFAPF
TAF
KAPF 141140Z 1412/1512 07005KT 1SM BR OVC002
      TEMPO 1412/1414 3SM BR BKN004 BKN010
     FM141400 15005KT P6SM SCT010 SCT020
     FM141700 22010KT P6SM FEW040
     FM150100 VRB04KT P6SM SCT250=



000
FTUS42 KMFL 141047 AAC
TAFAPF
TAF AMD
KAPF 141047Z 1411/1506 07005KT 6SM BR BKN003 BKN008 BKN013
      TEMPO 1411/1412 1 1/2SM BR BKN002
     FM141300 15005KT P6SM SCT010 SCT020
     FM141800 22010KT P6SM SCT040=



000
FTUS42 KMFL 141035 AAB
TAFAPF
TAF AMD
KAPF 141035Z 1411/1506 07005KT 6SM BR BKN003 BKN008 BKN013
     FM141300 15005KT P6SM SCT010 SCT020
     FM141800 22010KT P6SM SCT040=



000
FTUS42 KMFL 140924 AAA
TAFPBI
TAF AMD
KPBI 140924Z 1409/1506 12007KT P6SM SCT020
     FM141500 13012KT P6SM SCT040=



000
FTUS42 KMFL 140924 AAA
TAFFLL
TAF AMD
KFLL 140924Z 1409/1506 12006KT P6SM FEW016 SCT024
     FM141500 13012KT P6SM SCT040=



000
FTUS42 KMFL 140924 AAA
TAFMIA
TAF AMD
KMIA 140924Z 1409/1506 13004KT P6SM FEW017
     FM141500 13010KT P6SM SCT040=



000
FTUS42 KMFL 140924 AAA
TAFAPF
TAF AMD
KAPF 140924Z 1409/1506 07003KT P6SM SKC
     FM141400 15007KT P6SM SCT040
     FM141800 22010KT P6SM SCT040=



000
FTUS42 KMFL 140525
TAFFLL
TAF
KFLL 140525Z 1406/1506 10010KT P6SM SCT023 SCT040
     FM141500 13012KT P6SM SCT040=



000
FTUS42 KMFL 140525
TAFAPF
TAF
KAPF 140525Z 1406/1506 08008KT P6SM BKN070
     FM141400 15007KT P6SM SCT040
     FM141800 22010KT P6SM SCT040=



000
FTUS42 KMFL 140525
TAFPBI
TAF
KPBI 140525Z 1406/1506 09010KT P6SM FEW015 SCT025 BKN060
     FM141500 13012KT P6SM SCT040=



000
FTUS42 KMFL 140525
TAFMIA
TAF
KMIA 140525Z 1406/1506 10009KT P6SM SCT018 SCT030
     FM141500 13010KT P6SM SCT040=



000
FTUS42 KMFL 140317 AAA
TAFMIA
TAF AMD
KMIA 140317Z 1403/1424 10009KT P6SM SCT018 SCT030
     FM141500 13010KT P6SM SCT040=



000
FTUS42 KMFL 140317 AAA
TAFAPF
TAF AMD
KAPF 140317Z 1403/1424 08008KT P6SM BKN070
     FM141400 15007KT P6SM SCT040
     FM141800 22010KT P6SM SCT040=



000
FTUS42 KMFL 140316 AAA
TAFFLL
TAF AMD
KFLL 140316Z 1403/1424 10010KT P6SM SCT023 SCT040
     FM141500 13012KT P6SM SCT040=



000
FTUS42 KMFL 140315 AAA
TAFPBI
TAF AMD
KPBI 140315Z 1403/1424 09014KT P6SM VCSH FEW016 BKN028 BKN060
     FM140500 09010KT P6SM FEW015 SCT025 BKN060
     FM141500 13012KT P6SM SCT040=



000
FTUS42 KMFL 132323
TAFAPF
TAF
KAPF 132323Z 1400/1424 03007KT P6SM VCSH SCT025 BKN060
     FM140300 08005KT P6SM SKC
     FM141400 15007KT P6SM SCT040
     FM141800 22010KT P6SM SCT040=



000
FTUS42 KMFL 132323
TAFFLL
TAF
KFLL 132323Z 1400/1424 08010G20KT P6SM VCSH SCT030 BKN060
     FM140200 13006KT P6SM SCT025
     FM141500 13010KT P6SM SCT040=



000
FTUS42 KMFL 132323
TAFMIA
TAF
KMIA 132323Z 1400/1424 11009KT P6SM VCSH BKN025
     FM140200 12007KT P6SM SCT025
     FM141500 13010KT P6SM SCT040=



000
FTUS42 KMFL 132323
TAFPBI
TAF
KPBI 132323Z 1400/1424 08010G20KT P6SM VCSH BKN020 BKN060
     FM140200 11008KT P6SM SCT025
     FM141500 13012KT P6SM SCT040=



000
FTUS42 KMFL 132106 AAB
TAFAPF
TAF AMD
KAPF 132106Z 1321/1418 03009KT P6SM VCSH SCT025 BKN050
     FM140000 09004KT P6SM SCT035
     FM141400 13008KT P6SM FEW040=



000
FTUS42 KMFL 132104 AAA
TAFMIA
TAF AMD
KMIA 132104Z 1321/1418 11010KT P6SM VCSH SCT025 BKN050
     FM140000 11006KT P6SM FEW025
     FM141500 14008KT P6SM SCT040=



000
FTUS42 KMFL 132102 AAA
TAFFLL
TAF AMD
KFLL 132102Z 1321/1418 09010KT P6SM VCSH SCT025 BKN060
     FM140000 11007KT P6SM SCT030
     FM141500 13010KT P6SM SCT040=



000
FTUS42 KMFL 132100 AAA
TAFPBI
TAF AMD
KPBI 132100Z 1321/1418 08010G20KT P6SM VCSH BKN020 BKN060
     FM140000 11009KT P6SM SCT025 SCT100
     FM141500 13011KT P6SM SCT040=



000
FTUS42 KMFL 132037 AAA
TAFAPF
TAF AMD
KAPF 132037Z 1321/1418 03009KT P6SM VCSH SCT025 BKN050
     FM140000 09004KT P6SM SCT035
     FM141400 13008KT P6SM FEW040=



000
FTUS42 KMFL 131721
TAFFLL
TAF
KFLL 131721Z 1318/1418 09013KT P6SM VCSH SCT030 BKN060 BKN080
      TEMPO 1318/1319 3SM SHRA BKN025
     FM140000 11007KT P6SM SCT030
     FM141500 13010KT P6SM SCT040=



000
FTUS42 KMFL 131721
TAFMIA
TAF
KMIA 131721Z 1318/1418 11011KT P6SM SCT035 SCT250
     FM140300 11006KT P6SM FEW025
     FM141500 14008KT P6SM SCT040=



000
FTUS42 KMFL 131721
TAFAPF
TAF
KAPF 131721Z 1318/1418 08009KT P6SM FEW045 SCT060
     FM131930 25009KT P6SM FEW050
     FM140100 09004KT P6SM SKC
     FM141400 13008KT P6SM FEW040=



000
FTUS42 KMFL 131721
TAFPBI
TAF
KPBI 131721Z 1318/1418 08016G22KT P6SM VCSH BKN024 BKN030 BKN090
     FM140000 11009KT P6SM SCT025 SCT100
     FM141500 13011KT P6SM SCT040=



000
FTUS42 KMFL 131511 AAA
TAFPBI
TAF AMD
KPBI 131511Z 1315/1412 08016G23KT P6SM VCSH BKN020 BKN070 BKN090
     FM131600 08015G21KT P6SM SCT025 BKN050
      TEMPO 1316/1318 BKN025
     FM140000 11009KT P6SM SCT025=



000
FTUS42 KMFL 131511 AAA
TAFMIA
TAF AMD
KMIA 131511Z 1315/1412 10012KT P6SM FEW025 SCT050 SCT250
     FM140000 11006KT P6SM FEW025=



000
FTUS42 KMFL 131511 AAA
TAFFLL
TAF AMD
KFLL 131511Z 1315/1412 07014KT P6SM VCSH FEW012 BKN045 OVC080
     FM140000 11007KT P6SM SCT030=



000
FTUS42 KMFL 131511 AAA
TAFAPF
TAF AMD
KAPF 131511Z 1315/1412 10011KT P6SM FEW027 BKN035
     FM132030 24006KT P6SM SCT035
     FM132200 VRB05KT P6SM SKC=



    US Dept of Commerce
    National Oceanic and Atmospheric Administration
    National Weather Service
    1325 East West Highway
    Silver Spring, MD 20910
    Page Author: NWS Internet Services Team
Disclaimer
Information Quality
Credits
Glossary
Privacy Policy
Freedom of Information Act (FOIA)
About Us
Career Opportunities